Time;durP1;ratioP1;P1;durP2;ratioP2;P2;SDS_P1;SDS_P2;PMS_P1;PMS_P2;Temp;Humidity;BMP_temperature;BMP_pressure;BME280_temperature;BME280_humidity;BME280_pressure;Samples;Min_cycle;Max_cycle;Signal;HPM_P1;HPM_P2
2024/02/19 00:01:00;;;;;;;1.02;0.40;;;;;;;8.66;100.00;99766.34;5023510;28;20048;-77
2024/02/19 00:03:27;;;;;;;0.50;0.40;;;;;;;8.65;100.00;99761.97;5021477;28;20122;-77
2024/02/19 00:05:52;;;;;;;0.35;0.25;;;;;;;8.65;100.00;99774.63;5023417;28;20036;-77
2024/02/19 00:08:17;;;;;;;0.40;0.30;;;;;;;8.46;100.00;99730.78;5021714;28;20037;-78
2024/02/19 00:10:43;;;;;;;1.55;0.22;;;;;;;8.58;100.00;99754.72;5023250;28;20107;-78
2024/02/19 00:13:08;;;;;;;0.73;0.35;;;;;;;8.67;100.00;99770.75;5021238;28;20367;-78
2024/02/19 00:15:33;;;;;;;0.50;0.20;;;;;;;8.65;100.00;99750.34;5020759;28;20101;-78
2024/02/19 00:17:59;;;;;;;0.50;0.30;;;;;;;8.49;100.00;99735.00;5020456;28;20241;-78
2024/02/19 00:20:24;;;;;;;0.30;0.20;;;;;;;8.61;100.00;99754.38;5020332;28;20018;-78
2024/02/19 00:22:50;;;;;;;2.38;0.30;;;;;;;8.65;100.00;99753.88;5020952;28;20030;-78
2024/02/19 00:25:16;;;;;;;0.30;0.20;;;;;;;8.55;100.00;99740.53;5022753;28;20041;-77
2024/02/19 00:27:42;;;;;;;0.28;0.20;;;;;;;8.51;100.00;99736.50;5023510;28;20117;-77
2024/02/19 00:30:08;;;;;;;0.25;0.20;;;;;;;8.65;100.00;99750.34;5021721;28;20028;-78
2024/02/19 00:32:33;;;;;;;0.52;0.20;;;;;;;8.73;100.00;99761.97;5019544;28;20212;-77
2024/02/19 00:34:58;;;;;;;2.33;0.30;;;;;;;8.62;100.00;99740.72;5021322;28;20028;-77
2024/02/19 00:37:23;;;;;;;0.30;0.20;;;;;;;8.70;100.00;99750.69;5018515;28;20225;-78
2024/02/19 00:39:49;;;;;;;0.28;0.28;;;;;;;8.74;100.00;99752.84;5022653;28;20321;-77
2024/02/19 00:42:15;;;;;;;0.80;0.40;;;;;;;8.74;100.00;99760.94;5019823;28;20037;-77
2024/02/19 00:44:40;;;;;;;2.95;0.38;;;;;;;8.65;100.00;99740.38;5020869;28;20029;-77
2024/02/19 00:47:05;;;;;;;0.85;0.25;;;;;;;8.70;100.00;99753.38;5033904;28;20276;-78
2024/02/19 00:49:31;;;;;;;0.82;0.30;;;;;;;8.79;100.00;99752.34;5021228;28;20029;-78
2024/02/19 00:51:56;;;;;;;0.60;0.30;;;;;;;8.75;100.00;99754.56;5018579;28;20033;-78
2024/02/19 00:54:21;;;;;;;0.45;0.30;;;;;;;8.70;100.00;99745.28;5018532;28;20088;-77
2024/02/19 00:56:47;;;;;;;0.50;0.30;;;;;;;8.78;100.00;99766.88;5018507;28;20056;-77
2024/02/19 00:59:12;;;;;;;1.85;0.30;;;;;;;8.78;100.00;99751.53;5021630;28;20045;-78
2024/02/19 01:01:37;;;;;;;1.40;0.70;;;;;;;8.80;100.00;99747.81;5018411;28;20097;-77
2024/02/19 01:04:03;;;;;;;1.10;0.55;;;;;;;8.77;100.00;99743.59;5024343;28;20017;-77
2024/02/19 01:06:28;;;;;;;1.02;0.63;;;;;;;8.79;100.00;99749.66;5017688;28;20036;-77
2024/02/19 01:08:54;;;;;;;1.02;0.65;;;;;;;8.77;100.00;99749.81;5021916;28;20041;-78
2024/02/19 01:11:19;;;;;;;0.98;0.63;;;;;;;8.80;100.00;99745.94;5021452;28;20037;-77
2024/02/19 01:13:45;;;;;;;1.25;0.70;;;;;;;8.83;100.00;99732.13;5021375;28;20022;-77
2024/02/19 01:16:10;;;;;;;1.27;0.88;;;;;;;8.74;100.00;99739.38;5023227;28;20022;-77
2024/02/19 01:18:35;;;;;;;1.25;0.80;;;;;;;8.75;100.00;99737.50;5019346;28;20026;-77
2024/02/19 01:21:02;;;;;;;2.88;1.08;;;;;;;8.71;100.00;99728.91;5021167;28;20049;-77
2024/02/19 01:23:28;;;;;;;1.58;1.10;;;;;;;8.79;100.00;99738.88;5021728;28;20030;-77
2024/02/19 01:25:53;;;;;;;1.85;0.82;;;;;;;8.85;100.00;99750.84;5021815;28;20307;-77
2024/02/19 01:28:19;;;;;;;1.40;0.80;;;;;;;8.72;100.00;99710.88;5019385;28;20048;-77
2024/02/19 01:30:45;;;;;;;1.92;1.10;;;;;;;8.76;100.00;99728.41;5020184;28;20063;-78
2024/02/19 01:33:10;;;;;;;1.75;1.30;;;;;;;8.76;100.00;99734.66;5021643;28;20029;-78
2024/02/19 01:35:35;;;;;;;2.05;1.15;;;;;;;8.76;100.00;99725.72;5020178;28;20333;-77
2024/02/19 01:38:01;;;;;;;1.40;0.95;;;;;;;8.74;100.00;99722.34;5019934;28;20018;-78
2024/02/19 01:40:26;;;;;;;2.63;1.00;;;;;;;8.80;100.00;99737.84;5020020;28;20030;-77
2024/02/19 01:43:02;;;;;;;2.00;1.20;;;;;;;8.92;100.00;99750.00;5022086;28;21014;-77
2024/02/19 01:45:28;;;;;;;2.20;1.20;;;;;;;8.86;100.00;99731.78;5025457;28;20219;-78
2024/02/19 01:47:57;;;;;;;4.47;1.10;;;;;;;8.81;100.00;99727.91;5015876;28;20033;-77
2024/02/19 01:50:24;;;;;;;2.45;1.00;;;;;;;8.98;100.00;99749.31;5035471;28;20032;-78
2024/02/19 01:52:51;;;;;;;3.22;1.20;;;;;;;8.89;100.00;99738.72;5021032;28;20397;-78
2024/02/19 01:55:18;;;;;;;2.75;1.10;;;;;;;8.81;100.00;99738.72;5016283;28;20064;-78
2024/02/19 01:57:44;;;;;;;1.88;1.15;;;;;;;8.90;100.00;99741.22;5018747;28;20022;-78
2024/02/19 02:00:11;;;;;;;1.52;1.10;;;;;;;8.99;100.00;99752.88;5019748;28;20030;-78
2024/02/19 02:02:37;;;;;;;2.55;1.35;;;;;;;9.00;100.00;99757.25;5017375;28;20049;-77
2024/02/19 02:05:03;;;;;;;2.63;1.63;;;;;;;8.89;100.00;99758.44;5024015;28;20021;-78
2024/02/19 02:07:29;;;;;;;2.75;1.25;;;;;;;8.86;100.00;99747.97;5020201;28;20095;-78
2024/02/19 02:09:54;;;;;;;4.40;1.35;;;;;;;8.94;100.00;99752.53;5019628;28;20029;-78
2024/02/19 02:12:20;;;;;;;3.90;1.60;;;;;;;8.93;100.00;99759.78;5019735;28;20052;-78
2024/02/19 02:14:45;;;;;;;2.47;1.52;;;;;;;8.90;100.00;99751.19;5019601;28;20034;-78
2024/02/19 02:17:10;;;;;;;3.22;2.20;;;;;;;8.85;100.00;99737.34;5020129;28;20028;-78
2024/02/19 02:19:36;;;;;;;4.32;1.63;;;;;;;8.86;100.00;99731.78;5021763;28;20202;-78
2024/02/19 02:22:01;;;;;;;3.05;1.90;;;;;;;8.90;100.00;99743.91;5020849;28;20076;-78
2024/02/19 02:24:28;;;;;;;3.25;1.73;;;;;;;8.91;100.00;99756.41;5020315;28;20274;-77
2024/02/19 02:26:53;;;;;;;2.53;1.55;;;;;;;8.82;100.00;99738.53;5017884;28;20033;-77
2024/02/19 02:29:18;;;;;;;2.80;1.63;;;;;;;8.95;100.00;99763.16;5020286;28;20248;-77
2024/02/19 02:31:44;;;;;;;4.22;2.25;;;;;;;8.80;100.00;99748.63;5020731;28;20030;-76
2024/02/19 02:34:09;;;;;;;4.25;2.10;;;;;;;8.61;100.00;99736.34;5024599;28;20033;-77
2024/02/19 02:36:34;;;;;;;4.22;2.03;;;;;;;8.67;100.00;99748.28;5020237;28;20029;-77
2024/02/19 02:39:00;;;;;;;5.03;1.95;;;;;;;8.67;100.00;99738.38;5019351;28;20056;-77
2024/02/19 02:41:25;;;;;;;3.13;1.90;;;;;;;8.83;100.00;99764.50;5016993;28;20101;-77
2024/02/19 02:43:50;;;;;;;2.70;2.00;;;;;;;8.75;100.00;99768.06;5019477;28;20339;-77
2024/02/19 02:46:16;;;;;;;5.97;2.35;;;;;;;8.74;100.00;99754.72;5015447;28;20041;-77
2024/02/19 02:48:42;;;;;;;3.22;2.10;;;;;;;8.65;100.00;99745.78;5031960;28;20025;-76
2024/02/19 02:51:07;;;;;;;3.28;2.20;;;;;;;8.82;100.00;99768.22;5020670;28;20325;-76
2024/02/19 02:53:32;;;;;;;3.50;2.15;;;;;;;8.69;100.00;99747.13;5020762;28;20030;-77
2024/02/19 02:55:58;;;;;;;3.58;2.10;;;;;;;8.70;100.00;99748.81;5020547;28;20041;-77
2024/02/19 02:58:23;;;;;;;3.63;2.20;;;;;;;8.74;100.00;99754.72;5017655;28;20026;-77
2024/02/19 03:00:48;;;;;;;4.03;2.58;;;;;;;8.63;100.00;99749.66;5014964;28;20045;-77
2024/02/19 03:03:13;;;;;;;3.03;2.20;;;;;;;8.72;100.00;99764.81;5021256;28;20029;-77
2024/02/19 03:05:39;;;;;;;7.82;2.70;;;;;;;8.80;100.00;99766.69;5019956;28;20033;-78
2024/02/19 03:08:05;;;;;;;6.07;2.40;;;;;;;8.63;100.00;99736.19;5019555;28;20018;-78
2024/02/19 03:10:30;;;;;;;4.78;2.88;;;;;;;8.71;100.00;99755.06;5017120;28;20088;-77
2024/02/19 03:12:55;;;;;;;7.35;2.53;;;;;;;8.67;100.00;99748.28;5014225;28;20041;-78
2024/02/19 03:15:21;;;;;;;4.82;2.45;;;;;;;8.84;100.00;99770.75;5020460;28;20026;-77
2024/02/19 03:17:46;;;;;;;3.92;2.20;;;;;;;8.84;100.00;99755.41;5037229;28;20021;-77
2024/02/19 03:20:13;;;;;;;4.38;2.60;;;;;;;8.79;100.00;99744.25;5017190;28;20045;-78
2024/02/19 03:22:41;;;;;;;4.97;2.45;;;;;;;8.92;100.00;99768.03;5020446;28;20018;-78
2024/02/19 03:25:06;;;;;;;3.50;2.65;;;;;;;8.98;100.00;99770.06;5019866;28;20022;-78
2024/02/19 03:27:32;;;;;;;3.55;2.15;;;;;;;8.86;100.00;99739.88;5023442;28;20090;-78
2024/02/19 03:29:57;;;;;;;3.72;2.38;;;;;;;8.90;100.00;99754.72;5024564;28;20308;-78
2024/02/19 03:32:22;;;;;;;2.88;2.00;;;;;;;9.04;100.00;99760.44;5023671;28;20026;-78
2024/02/19 03:34:48;;;;;;;5.57;2.30;;;;;;;8.91;100.00;99745.63;5024625;28;20025;-77
2024/02/19 03:37:15;;;;;;;5.97;1.98;;;;;;;9.00;100.00;99770.75;5020935;28;20033;-78
2024/02/19 03:39:40;;;;;;;3.35;1.80;;;;;;;8.95;100.00;99765.00;5016198;28;20041;-77
2024/02/19 03:42:05;;;;;;;3.60;1.45;;;;;;;8.90;100.00;99767.38;5024942;28;20025;-77
2024/02/19 03:44:32;;;;;;;2.05;1.40;;;;;;;8.89;100.00;99769.22;5024024;28;20024;-78
2024/02/19 03:46:57;;;;;;;2.72;1.80;;;;;;;8.95;100.00;99767.72;5023500;28;20076;-77
2024/02/19 03:49:23;;;;;;;2.92;1.73;;;;;;;8.95;100.00;99762.31;5022113;28;20034;-78
2024/02/19 03:51:48;;;;;;;3.40;1.65;;;;;;;8.88;100.00;99751.34;5023467;28;20038;-78
2024/02/19 03:54:13;;;;;;;5.25;1.85;;;;;;;8.99;100.00;99766.38;5020997;28;20034;-78
2024/02/19 03:56:39;;;;;;;3.15;2.03;;;;;;;8.95;100.00;99756.91;5020945;28;20030;-78
2024/02/19 03:59:05;;;;;;;3.70;2.20;;;;;;;8.82;100.00;99762.81;5022230;28;20037;-75
2024/02/19 04:01:30;;;;;;;4.47;2.28;;;;;;;8.82;100.00;99760.13;5022526;28;20033;-75
2024/02/19 04:03:55;;;;;;;4.10;2.20;;;;;;;8.86;100.00;99766.88;5024379;28;20044;-75
2024/02/19 04:06:21;;;;;;;4.25;2.67;;;;;;;8.86;100.00;99772.28;5020971;28;20333;-75
2024/02/19 04:08:46;;;;;;;4.18;2.35;;;;;;;8.74;100.00;99746.63;5017718;28;20022;-75
2024/02/19 04:11:15;;;;;;;4.35;2.75;;;;;;;8.84;100.00;99774.28;5022418;28;20026;-75
2024/02/19 04:13:40;;;;;;;3.55;2.47;;;;;;;8.86;100.00;99780.38;5022410;28;20213;-75
2024/02/19 04:16:08;;;;;;;4.18;2.70;;;;;;;8.93;100.00;99785.91;5020588;28;20034;-75
2024/02/19 04:18:33;;;;;;;5.82;2.58;;;;;;;8.81;100.00;99782.72;5021458;28;20033;-75
2024/02/19 04:20:59;;;;;;;4.45;3.00;;;;;;;8.69;100.00;99770.56;5017957;28;20029;-75
2024/02/19 04:23:24;;;;;;;5.15;3.30;;;;;;;8.76;100.00;99782.38;5033559;28;20178;-78
2024/02/19 04:25:49;;;;;;;4.93;2.78;;;;;;;8.85;100.00;99778.66;5019932;28;20033;-77
2024/02/19 04:28:15;;;;;;;5.65;2.95;;;;;;;8.93;100.00;99791.31;5020741;28;20222;-81
2024/02/19 04:30:40;;;;;;;5.22;2.70;;;;;;;8.81;100.00;99758.44;5024751;28;20022;-80
2024/02/19 04:33:05;;;;;;;5.55;3.40;;;;;;;8.94;100.00;99783.06;5024822;28;20034;-80
2024/02/19 04:35:30;;;;;;;5.15;2.60;;;;;;;8.90;100.00;99770.91;5048254;28;20119;-79
2024/02/19 04:37:56;;;;;;;5.28;3.30;;;;;;;8.93;100.00;99777.81;5038341;28;20355;-81
2024/02/19 04:40:21;;;;;;;3.42;2.38;;;;;;;9.07;100.00;99787.13;5028032;28;20325;-79
2024/02/19 04:42:46;;;;;;;5.32;2.50;;;;;;;9.05;100.00;99789.97;5026798;28;20034;-81
2024/02/19 04:45:12;;;;;;;7.43;2.60;;;;;;;9.00;100.00;99790.47;5027317;28;20026;-81
2024/02/19 04:47:37;;;;;;;4.78;2.20;;;;;;;9.00;100.00;99782.38;5025713;28;20090;-80
2024/02/19 04:50:03;;;;;;;4.45;2.53;;;;;;;9.03;100.00;99785.75;5029172;28;20052;-80
2024/02/19 04:52:29;;;;;;;4.38;2.13;;;;;;;8.86;100.00;99753.38;5027375;28;20148;-81
2024/02/19 04:54:55;;;;;;;4.07;2.40;;;;;;;8.92;100.00;99757.25;5031242;28;20025;-77
2024/02/19 04:57:20;;;;;;;7.45;3.28;;;;;;;9.05;100.00;99781.03;5023327;28;20225;-77
2024/02/19 04:59:46;;;;;;;4.00;2.20;;;;;;;9.14;100.00;99799.78;5021165;28;20092;-75
2024/02/19 05:02:11;;;;;;;3.10;2.10;;;;;;;9.12;100.00;99791.00;5021345;28;20221;-76
2024/02/19 05:04:37;;;;;;;4.47;2.17;;;;;;;9.20;100.00;99804.47;5021530;28;20030;-80
2024/02/19 05:07:02;;;;;;;3.95;2.20;;;;;;;9.06;100.00;99761.94;5017786;28;20037;-77
2024/02/19 05:09:28;;;;;;;4.00;2.30;;;;;;;9.17;100.00;99796.72;5018929;28;20030;-78
2024/02/19 05:11:53;;;;;;;4.32;2.15;;;;;;;9.12;100.00;99785.59;5021485;28;20156;-78
2024/02/19 05:14:18;;;;;;;5.13;2.17;;;;;;;9.03;100.00;99780.34;5021948;28;20076;-78
2024/02/19 05:16:44;;;;;;;6.28;2.30;;;;;;;9.11;100.00;99783.88;5018158;28;20030;-77
2024/02/19 05:19:09;;;;;;;3.40;1.77;;;;;;;9.18;100.00;99794.88;5020716;28;20025;-78
2024/02/19 05:21:39;;;;;;;6.00;1.88;;;;;;;9.19;100.00;99793.84;5019179;28;20022;-77
2024/02/19 05:24:05;;;;;;;5.38;2.50;;;;;;;9.14;100.00;99785.41;5022671;28;20009;-79
2024/02/19 05:26:32;;;;;;;3.38;1.95;;;;;;;9.24;100.00;99809.53;5033558;22;20084;-49
2024/02/19 05:28:57;;;;;;;6.75;2.65;;;;;;;9.22;100.00;99812.38;5052181;28;20439;-50
2024/02/19 05:31:41;;;;;;;6.00;2.22;;;;;;;9.18;100.00;99801.09;5049958;28;20060;-50
2024/02/19 05:34:07;;;;;;;6.35;2.22;;;;;;;9.24;100.00;99825.72;5046522;28;20082;-50
2024/02/19 05:36:34;;;;;;;8.45;2.30;;;;;;;9.16;100.00;99818.47;5038661;28;20033;-50
2024/02/19 05:39:00;;;;;;;3.65;1.90;;;;;;;9.12;100.00;99809.06;5047269;28;20074;-50
2024/02/19 05:41:26;;;;;;;7.80;1.80;;;;;;;9.19;100.00;99815.44;5037616;28;20026;-50
2024/02/19 05:44:20;;;;;;;2.65;1.40;;;;;;;9.23;100.00;99819.50;5037284;28;20338;-53
2024/02/19 05:46:53;;;;;;;2.78;1.58;;;;;;;9.25;100.00;99817.47;5030314;28;20033;-53
2024/02/19 05:49:25;;;;;;;3.10;1.55;;;;;;;9.25;100.00;99825.56;5030492;28;20114;-53
2024/02/19 05:51:54;;;;;;;3.42;1.98;;;;;;;9.22;100.00;99825.91;5033345;28;20116;-53
2024/02/19 05:54:23;;;;;;;3.55;1.65;;;;;;;9.12;100.00;99819.84;5031220;28;20021;-54
2024/02/19 05:56:48;;;;;;;5.80;1.60;;;;;;;9.11;100.00;99827.06;5030382;28;20026;-54
2024/02/19 05:59:14;;;;;;;3.75;1.65;;;;;;;9.12;100.00;99828.78;5034643;28;20076;-53
2024/02/19 06:01:39;;;;;;;3.45;1.58;;;;;;;9.02;100.00;99829.97;5038663;28;20038;-53
2024/02/19 06:04:05;;;;;;;2.95;1.73;;;;;;;9.11;100.00;99837.03;5034048;28;20121;-55
2024/02/19 06:06:31;;;;;;;3.70;1.80;;;;;;;9.02;100.00;99830.81;5040659;28;20033;-54
2024/02/19 06:08:56;;;;;;;6.30;1.85;;;;;;;9.05;100.00;99841.25;5035518;28;20028;-54
2024/02/19 06:11:22;;;;;;;4.82;1.70;;;;;;;9.05;100.00;99840.41;5041690;28;20087;-54
2024/02/19 06:13:48;;;;;;;4.53;1.63;;;;;;;8.99;100.00;99836.53;5036382;28;20025;-54
2024/02/19 06:16:15;;;;;;;3.58;1.50;;;;;;;9.01;100.00;99845.28;5037432;28;20082;-55
2024/02/19 06:18:41;;;;;;;3.53;1.58;;;;;;;9.03;100.00;99850.53;5039004;28;20484;-54
2024/02/19 06:21:07;;;;;;;4.55;1.70;;;;;;;8.96;100.00;99845.81;5041859;28;20037;-55
2024/02/19 06:23:33;;;;;;;4.10;1.88;;;;;;;8.98;100.00;99854.56;5039864;28;20158;-55
2024/02/19 06:26:00;;;;;;;4.53;1.90;;;;;;;8.94;100.00;99853.22;5038011;28;20531;-55
2024/02/19 06:28:25;;;;;;;3.85;1.85;;;;;;;8.93;100.00;99861.47;5029857;28;20037;-54
2024/02/19 06:30:51;;;;;;;4.82;1.85;;;;;;;8.89;100.00;99860.97;5032694;28;20036;-53
2024/02/19 06:33:17;;;;;;;5.95;1.70;;;;;;;8.87;100.00;99868.41;5038014;28;20030;-54
2024/02/19 06:35:42;;;;;;;3.88;1.67;;;;;;;8.88;100.00;99863.84;5033552;28;20052;-55
2024/02/19 06:38:08;;;;;;;5.00;1.85;;;;;;;8.96;100.00;99870.09;5031995;28;20017;-54
2024/02/19 06:40:36;;;;;;;4.47;1.60;;;;;;;8.91;100.00;99867.06;5035827;28;20025;-54
2024/02/19 06:43:02;;;;;;;4.90;1.60;;;;;;;8.87;100.00;99873.78;5033772;28;20493;-54
2024/02/19 06:45:27;;;;;;;5.45;1.67;;;;;;;8.89;100.00;99876.34;5028995;28;20034;-54
2024/02/19 06:47:53;;;;;;;2.03;1.40;;;;;;;8.87;100.00;99875.66;5028700;28;20018;-54
2024/02/19 06:50:18;;;;;;;4.00;1.60;;;;;;;8.85;100.00;99880.38;5034539;28;20369;-54
2024/02/19 06:52:45;;;;;;;4.38;1.70;;;;;;;8.87;100.00;99889.97;5029078;28;20037;-54
2024/02/19 06:55:16;;;;;;;4.65;1.50;;;;;;;8.77;100.00;99894.69;5035565;28;20079;-54
2024/02/19 06:57:43;;;;;;;3.65;1.50;;;;;;;8.78;100.00;99893.69;5036347;28;20060;-53
2024/02/19 07:00:10;;;;;;;4.30;1.80;;;;;;;8.72;100.00;99889.81;5043527;28;20373;-54
2024/02/19 07:02:36;;;;;;;2.25;1.33;;;;;;;8.74;100.00;99889.63;5035984;28;20029;-54
2024/02/19 07:05:05;;;;;;;5.55;1.20;;;;;;;8.75;100.00;99889.47;5042969;28;20017;-53
2024/02/19 07:07:32;;;;;;;3.90;1.27;;;;;;;8.66;100.00;99884.22;5040588;28;20017;-53
2024/02/19 07:09:57;;;;;;;2.00;0.95;;;;;;;8.73;100.00;99887.94;5037327;28;20473;-50
2024/02/19 07:12:23;;;;;;;3.08;1.42;;;;;;;8.83;100.00;99896.75;5034485;28;20032;-50
2024/02/19 07:14:49;;;;;;;5.07;1.20;;;;;;;8.88;100.00;99902.50;5042831;28;20532;-50
2024/02/19 07:17:14;;;;;;;1.95;1.05;;;;;;;8.91;100.00;99894.06;5031781;28;20031;-50
2024/02/19 07:19:40;;;;;;;4.07;0.70;;;;;;;9.00;100.00;99897.59;5033277;28;20189;-50
2024/02/19 07:22:05;;;;;;;3.17;1.42;;;;;;;8.86;100.00;99912.59;5038448;28;20020;-50
2024/02/19 07:24:32;;;;;;;7.13;1.00;;;;;;;8.88;100.00;99913.28;5038471;28;20346;-51
2024/02/19 07:26:58;;;;;;;5.20;0.77;;;;;;;8.85;100.00;99912.75;5037883;28;20032;-51
2024/02/19 07:29:24;;;;;;;2.92;0.93;;;;;;;8.90;100.00;99911.25;5037537;28;20029;-51
2024/02/19 07:31:51;;;;;;;1.77;0.80;;;;;;;8.80;100.00;99918.63;5036697;28;20084;-51
2024/02/19 07:34:16;;;;;;;4.43;0.60;;;;;;;8.89;100.00;99919.53;5038838;28;20087;-51
2024/02/19 07:36:44;;;;;;;1.42;0.65;;;;;;;8.93;100.00;99924.44;5034852;28;20033;-51
2024/02/19 07:39:10;;;;;;;1.27;0.80;;;;;;;8.92;100.00;99924.59;5042414;28;20108;-50
2024/02/19 07:41:36;;;;;;;3.53;1.20;;;;;;;9.02;100.00;99925.28;5030053;28;20459;-50
2024/02/19 07:44:01;;;;;;;2.30;0.98;;;;;;;9.00;100.00;99922.72;5030836;28;20433;-50
2024/02/19 07:46:27;;;;;;;2.88;1.30;;;;;;;9.05;100.00;99934.91;5028650;28;20435;-50
2024/02/19 07:48:52;;;;;;;3.00;0.95;;;;;;;9.07;100.00;99949.09;5030560;28;20541;-50
2024/02/19 07:51:18;;;;;;;1.65;1.00;;;;;;;9.04;100.00;99946.69;5029846;28;20028;-50
2024/02/19 07:53:43;;;;;;;4.38;1.00;;;;;;;9.11;100.00;99945.88;5029426;28;20025;-50
2024/02/19 07:56:10;;;;;;;3.90;1.20;;;;;;;9.08;100.00;99956.16;5028697;28;20029;-50
2024/02/19 07:58:35;;;;;;;2.70;1.10;;;;;;;9.02;100.00;99957.66;5030742;28;20496;-50
2024/02/19 08:01:05;;;;;;;4.03;1.00;;;;;;;8.97;100.00;99950.06;5030502;28;20044;-50
2024/02/19 08:03:32;;;;;;;4.00;1.00;;;;;;;9.00;100.00;99954.28;5028863;28;20021;-50
2024/02/19 08:05:58;;;;;;;6.30;1.33;;;;;;;8.94;100.00;99971.16;5020789;28;20461;-50
2024/02/19 08:08:24;;;;;;;7.57;1.10;;;;;;;8.90;100.00;99973.31;5035830;28;20171;-50
2024/02/19 08:10:49;;;;;;;1.80;0.85;;;;;;;8.94;100.00;99976.53;5039023;28;20022;-50
2024/02/19 08:13:15;;;;;;;3.60;1.40;;;;;;;9.00;100.00;99983.97;5034934;28;20034;-50
2024/02/19 08:15:41;;;;;;;3.92;1.20;;;;;;;9.03;100.00;99975.53;5031920;28;20159;-50
2024/02/19 08:18:07;;;;;;;1.55;1.00;;;;;;;9.03;100.00;99980.94;5039765;28;20029;-50
2024/02/19 08:20:42;;;;;;;6.00;1.10;;;;;;;9.00;100.00;99992.91;5033135;28;20116;-50
2024/02/19 08:23:07;;;;;;;3.58;1.17;;;;;;;9.00;100.00;99992.91;5032909;28;20380;-50
2024/02/19 08:25:33;;;;;;;4.60;1.42;;;;;;;9.00;100.00;99994.78;5037371;28;20037;-50
2024/02/19 08:27:59;;;;;;;2.42;1.10;;;;;;;8.97;100.00;99997.81;5039823;28;20078;-50
2024/02/19 08:30:25;;;;;;;7.30;1.60;;;;;;;8.95;100.00;99995.25;5031656;28;20052;-50
2024/02/19 08:32:50;;;;;;;3.67;1.30;;;;;;;9.05;100.00;100005.94;5037579;28;20059;-50
2024/02/19 08:35:16;;;;;;;3.17;1.00;;;;;;;9.08;100.00;100004.75;5034948;28;20573;-50
2024/02/19 08:37:42;;;;;;;3.53;1.30;;;;;;;9.10;100.00;100018.94;5036071;28;20068;-50
2024/02/19 08:40:08;;;;;;;3.45;1.10;;;;;;;9.16;100.00;100007.47;5040116;28;20100;-50
2024/02/19 08:42:35;;;;;;;3.47;1.00;;;;;;;9.28;100.00;100011.56;5032796;28;20041;-50
2024/02/19 08:45:03;;;;;;;6.68;0.88;;;;;;;9.31;100.00;100015.78;5044207;28;20021;-50
2024/02/19 08:47:29;;;;;;;2.38;0.65;;;;;;;9.34;100.00;100016.28;5036027;28;20036;-50
2024/02/19 08:49:54;;;;;;;3.42;0.93;;;;;;;9.34;100.00;100031.66;5042968;28;20057;-50
2024/02/19 08:52:20;;;;;;;12.15;3.15;;;;;;;9.22;100.00;100025.69;5042144;28;20048;-50
2024/02/19 08:54:45;;;;;;;2.42;1.58;;;;;;;9.28;100.00;100033.16;5034604;28;20079;-50
2024/02/19 08:57:11;;;;;;;3.85;1.60;;;;;;;9.29;100.00;100024.03;5040691;28;20028;-51
2024/02/19 08:59:37;;;;;;;3.00;1.23;;;;;;;9.54;100.00;100024.13;5033973;28;20044;-50
2024/02/19 09:02:04;;;;;;;2.88;0.85;;;;;;;9.71;100.00;100022.25;5031831;28;20025;-50
2024/02/19 09:04:29;;;;;;;2.85;1.00;;;;;;;9.75;100.00;100016.34;5033920;28;20024;-50
2024/02/19 09:06:55;;;;;;;4.43;0.93;;;;;;;9.85;100.00;100006.22;5033860;28;20025;-50
2024/02/19 09:09:20;;;;;;;2.72;1.10;;;;;;;9.85;100.00;100019.75;5041504;28;20037;-50
2024/02/19 09:11:46;;;;;;;4.32;0.85;;;;;;;9.83;100.00;100010.13;5045491;28;20087;-50
2024/02/19 09:14:11;;;;;;;3.58;0.80;;;;;;;9.69;100.00;100014.31;5026389;28;20042;-50
2024/02/19 09:16:37;;;;;;;3.95;0.85;;;;;;;9.63;100.00;100020.41;5032532;28;20041;-50
2024/02/19 09:19:06;;;;;;;2.15;0.70;;;;;;;9.46;100.00;100014.13;5035975;28;20058;-50
2024/02/19 09:21:32;;;;;;;4.57;0.85;;;;;;;9.35;100.00;100026.09;5043348;28;20028;-50
2024/02/19 09:23:57;;;;;;;3.20;0.60;;;;;;;9.27;100.00;100031.47;5032251;28;20024;-51
2024/02/19 09:26:23;;;;;;;10.07;1.15;;;;;;;9.18;100.00;100027.06;5030506;28;20029;-51
2024/02/19 09:28:48;;;;;;;2.05;0.77;;;;;;;9.15;100.00;100016.59;5038188;28;20033;-52
2024/02/19 09:31:14;;;;;;;3.65;0.80;;;;;;;9.20;100.00;100035.84;5041817;28;20104;-55
2024/02/19 09:33:40;;;;;;;3.42;0.70;;;;;;;9.16;100.00;100040.72;5039868;28;20469;-54
2024/02/19 09:36:07;;;;;;;3.90;1.17;;;;;;;9.08;100.00;100037.16;5039039;28;20028;-54
2024/02/19 09:38:32;;;;;;;2.08;0.70;;;;;;;9.10;100.00;100035.97;5040946;28;20053;-54
2024/02/19 09:40:58;;;;;;;4.25;0.88;;;;;;;9.10;100.00;100045.94;5039592;28;20095;-54
2024/02/19 09:43:24;;;;;;;3.63;0.70;;;;;;;9.01;100.00;100039.63;5033473;28;20021;-55
2024/02/19 09:45:50;;;;;;;3.78;1.50;;;;;;;8.95;100.00;100048.41;5038158;28;20106;-55
2024/02/19 09:48:18;;;;;;;6.78;1.02;;;;;;;8.95;100.00;100051.09;5042191;28;20593;-55
2024/02/19 09:50:47;;;;;;;6.15;1.98;;;;;;;8.99;100.00;100050.63;5036403;28;20026;-55
2024/02/19 09:53:17;;;;;;;;;;;;;;;8.96;100.00;100041.97;5031570;28;20489;-55
2024/02/19 09:55:43;;;;;;;6.93;1.55;;;;;;;9.05;100.00;100050.97;5036878;28;19917;-55
2024/02/19 09:58:09;;;;;;;3.70;1.13;;;;;;;9.07;100.00;100054.38;5043091;28;20029;-55
2024/02/19 10:00:36;;;;;;;4.07;0.80;;;;;;;9.24;100.00;100053.41;5038617;28;20112;-55
2024/02/19 10:03:02;;;;;;;2.20;0.80;;;;;;;9.50;100.00;100064.09;5041775;28;20017;-55
2024/02/19 10:05:28;;;;;;;5.22;1.70;;;;;;;9.80;100.00;100062.66;5045501;28;20028;-53
2024/02/19 10:07:58;;;;;;;4.70;1.00;;;;;;;10.27;100.00;100051.19;5035759;28;20021;-55
2024/02/19 10:10:26;;;;;;;3.63;1.00;;;;;;;10.80;100.00;100061.56;5040858;28;20100;-54
2024/02/19 10:12:51;;;;;;;3.45;1.25;;;;;;;11.21;100.00;100053.25;5030727;28;20825;-53
2024/02/19 10:15:17;;;;;;;3.40;1.33;;;;;;;11.39;100.00;100057.41;5030869;28;20025;-53
2024/02/19 10:17:42;;;;;;;3.00;1.15;;;;;;;11.23;100.00;100062.91;5036805;28;20014;-53
2024/02/19 10:20:10;;;;;;;4.10;1.10;;;;;;;11.12;100.00;100063.31;5043218;28;20025;-53
2024/02/19 10:22:35;;;;;;;5.47;0.90;;;;;;;11.20;100.00;100065.97;5039345;28;20351;-53
2024/02/19 10:25:01;;;;;;;4.43;1.13;;;;;;;11.07;100.00;100061.13;5031652;28;20057;-53
2024/02/19 10:27:45;;;;;;;8.40;3.00;;;;;;;11.05;100.00;100060.44;5029895;28;20390;-53
2024/02/19 10:30:12;;;;;;;3.33;1.23;;;;;;;10.90;100.00;100054.94;5056333;28;20035;-52
2024/02/19 10:32:42;;;;;;;2.75;0.85;;;;;;;10.82;100.00;100059.50;5035943;28;20021;-55
2024/02/19 10:35:08;;;;;;;5.15;1.08;;;;;;;10.99;100.00;100074.69;5044091;28;20052;-54
2024/02/19 10:37:35;;;;;;;3.00;0.93;;;;;;;11.04;100.00;100075.00;5043411;28;20056;-53
2024/02/19 10:40:01;;;;;;;5.03;0.90;;;;;;;11.09;100.00;100071.78;5045310;28;20025;-53
2024/02/19 10:42:28;;;;;;;6.90;1.15;;;;;;;11.05;100.00;100073.97;5043365;28;20055;-52
2024/02/19 10:44:56;;;;;;;2.50;0.68;;;;;;;10.95;100.00;100078.75;5039236;28;20045;-53
2024/02/19 10:47:23;;;;;;;4.20;0.68;;;;;;;11.02;100.00;100055.38;5037232;28;20120;-54
2024/02/19 10:49:49;;;;;;;6.05;1.23;;;;;;;11.16;100.00;100065.50;5034886;28;20048;-54
2024/02/19 10:52:15;;;;;;;5.43;2.15;;;;;;;11.30;100.00;100063.06;5040583;28;20083;-55
2024/02/19 10:54:45;;;;;;;7.55;3.50;;;;;;;11.14;100.00;100056.69;5036276;28;20029;-54
2024/02/19 10:57:17;;;;;;;8.65;3.50;;;;;;;11.31;100.00;100062.03;5045285;28;20025;-54
2024/02/19 10:59:43;;;;;;;2.80;1.45;;;;;;;11.33;100.00;100057.28;5031756;28;20028;-54
2024/02/19 11:02:09;;;;;;;4.07;2.42;;;;;;;11.45;100.00;100038.72;5043798;28;20108;-54
2024/02/19 11:04:35;;;;;;;7.60;1.45;;;;;;;11.48;100.00;100043.81;5036567;28;20026;-54
2024/02/19 11:07:03;;;;;;;3.20;0.93;;;;;;;11.67;100.00;100035.22;5038702;28;20067;-53
2024/02/19 11:09:33;;;;;;;4.30;2.17;;;;;;;11.74;100.00;100038.91;5041075;28;20456;-54
2024/02/19 11:12:01;;;;;;;8.18;1.60;;;;;;;11.83;100.00;100036.97;5039905;28;20070;-54
2024/02/19 11:14:32;;;;;;;2.35;1.20;;;;;;;11.69;100.00;100026.91;5036908;28;20033;-51
2024/02/19 11:16:59;;;;;;;3.58;1.73;;;;;;;11.98;100.00;100028.91;5036796;28;20088;-51
2024/02/19 11:19:26;;;;;;;9.82;3.30;;;;;;;11.94;100.00;100025.72;5040420;28;20473;-52
2024/02/19 11:22:03;;;;;;;13.88;5.35;;;;;;;11.83;100.00;100021.53;5036231;28;20029;-52
2024/02/19 11:24:31;;;;;;;6.05;3.42;;;;;;;12.31;100.00;100018.59;5030607;28;20036;-52
2024/02/19 11:26:56;;;;;;;2.70;0.95;;;;;;;12.29;100.00;100015.25;5036529;28;20044;-52